sensor_id;sensor_type;location;lat;lon;timestamp;P1;durP1;ratioP1;P2;durP2;ratioP2
20456;SDS011;10387;51.102;6.848;2022-07-30T00:00:55;10.27;;;9.27;;
20456;SDS011;10387;51.102;6.848;2022-07-30T00:03:21;10.17;;;8.50;;
20456;SDS011;10387;51.102;6.848;2022-07-30T00:05:47;9.10;;;8.30;;
20456;SDS011;10387;51.102;6.848;2022-07-30T00:08:13;10.10;;;8.57;;
20456;SDS011;10387;51.102;6.848;2022-07-30T00:10:40;9.83;;;8.47;;
20456;SDS011;10387;51.102;6.848;2022-07-30T00:13:06;9.53;;;8.63;;
20456;SDS011;10387;51.102;6.848;2022-07-30T00:15:32;9.50;;;8.53;;
20456;SDS011;10387;51.102;6.848;2022-07-30T00:17:58;9.17;;;8.27;;
20456;SDS011;10387;51.102;6.848;2022-07-30T00:20:24;10.10;;;8.77;;
20456;SDS011;10387;51.102;6.848;2022-07-30T00:22:50;9.83;;;8.93;;
20456;SDS011;10387;51.102;6.848;2022-07-30T00:25:17;9.43;;;8.53;;
20456;SDS011;10387;51.102;6.848;2022-07-30T00:27:43;9.67;;;8.73;;
20456;SDS011;10387;51.102;6.848;2022-07-30T00:30:09;10.13;;;9.03;;
20456;SDS011;10387;51.102;6.848;2022-07-30T00:32:35;9.83;;;8.63;;
20456;SDS011;10387;51.102;6.848;2022-07-30T00:35:02;11.10;;;9.03;;
20456;SDS011;10387;51.102;6.848;2022-07-30T00:37:28;9.03;;;8.23;;
20456;SDS011;10387;51.102;6.848;2022-07-30T00:39:54;10.03;;;8.87;;
20456;SDS011;10387;51.102;6.848;2022-07-30T00:42:20;9.60;;;8.70;;
20456;SDS011;10387;51.102;6.848;2022-07-30T00:44:52;10.60;;;9.50;;
20456;SDS011;10387;51.102;6.848;2022-07-30T00:47:18;12.10;;;10.13;;
20456;SDS011;10387;51.102;6.848;2022-07-30T00:49:45;10.70;;;9.60;;
20456;SDS011;10387;51.102;6.848;2022-07-30T00:52:11;11.57;;;9.03;;
20456;SDS011;10387;51.102;6.848;2022-07-30T00:54:39;9.83;;;8.80;;
20456;SDS011;10387;51.102;6.848;2022-07-30T00:57:05;10.00;;;8.83;;
20456;SDS011;10387;51.102;6.848;2022-07-30T00:59:31;10.50;;;9.40;;
20456;SDS011;10387;51.102;6.848;2022-07-30T01:01:57;9.83;;;8.77;;
20456;SDS011;10387;51.102;6.848;2022-07-30T01:04:25;11.63;;;9.57;;
20456;SDS011;10387;51.102;6.848;2022-07-30T01:06:51;10.43;;;9.40;;
20456;SDS011;10387;51.102;6.848;2022-07-30T01:09:17;10.40;;;9.37;;
20456;SDS011;10387;51.102;6.848;2022-07-30T01:11:44;10.60;;;9.57;;
20456;SDS011;10387;51.102;6.848;2022-07-30T01:14:11;10.13;;;9.13;;
20456;SDS011;10387;51.102;6.848;2022-07-30T01:16:38;10.97;;;9.87;;
20456;SDS011;10387;51.102;6.848;2022-07-30T01:19:06;12.63;;;10.00;;
20456;SDS011;10387;51.102;6.848;2022-07-30T01:21:54;11.40;;;10.20;;
20456;SDS011;10387;51.102;6.848;2022-07-30T01:24:35;12.20;;;11.00;;
20456;SDS011;10387;51.102;6.848;2022-07-30T01:27:03;11.50;;;10.40;;
20456;SDS011;10387;51.102;6.848;2022-07-30T01:29:30;14.97;;;11.10;;
20456;SDS011;10387;51.102;6.848;2022-07-30T01:31:57;12.27;;;10.97;;
20456;SDS011;10387;51.102;6.848;2022-07-30T01:34:28;13.20;;;11.33;;
20456;SDS011;10387;51.102;6.848;2022-07-30T01:36:56;12.33;;;11.03;;
20456;SDS011;10387;51.102;6.848;2022-07-30T01:39:24;13.07;;;11.77;;
20456;SDS011;10387;51.102;6.848;2022-07-30T01:41:52;12.60;;;11.40;;
20456;SDS011;10387;51.102;6.848;2022-07-30T01:44:18;13.83;;;12.23;;
20456;SDS011;10387;51.102;6.848;2022-07-30T01:46:45;13.30;;;11.97;;
20456;SDS011;10387;51.102;6.848;2022-07-30T01:49:13;12.73;;;11.43;;
20456;SDS011;10387;51.102;6.848;2022-07-30T01:51:39;13.53;;;12.13;;
20456;SDS011;10387;51.102;6.848;2022-07-30T01:54:07;15.97;;;12.13;;
20456;SDS011;10387;51.102;6.848;2022-07-30T01:56:34;13.70;;;11.20;;
20456;SDS011;10387;51.102;6.848;2022-07-30T01:59:02;13.23;;;11.87;;
20456;SDS011;10387;51.102;6.848;2022-07-30T02:01:29;13.10;;;11.90;;
20456;SDS011;10387;51.102;6.848;2022-07-30T02:03:59;13.70;;;12.13;;
20456;SDS011;10387;51.102;6.848;2022-07-30T02:06:29;13.70;;;12.33;;
20456;SDS011;10387;51.102;6.848;2022-07-30T02:09:00;14.30;;;12.80;;
20456;SDS011;10387;51.102;6.848;2022-07-30T02:11:30;16.23;;;12.97;;
20456;SDS011;10387;51.102;6.848;2022-07-30T02:14:21;13.93;;;12.27;;
20456;SDS011;10387;51.102;6.848;2022-07-30T02:16:49;14.97;;;12.53;;
20456;SDS011;10387;51.102;6.848;2022-07-30T02:19:20;14.80;;;13.30;;
20456;SDS011;10387;51.102;6.848;2022-07-30T02:21:58;14.60;;;13.10;;
20456;SDS011;10387;51.102;6.848;2022-07-30T02:24:28;15.07;;;13.67;;
20456;SDS011;10387;51.102;6.848;2022-07-30T02:26:57;13.93;;;12.60;;
20456;SDS011;10387;51.102;6.848;2022-07-30T02:29:26;14.60;;;12.73;;
20456;SDS011;10387;51.102;6.848;2022-07-30T02:31:53;14.60;;;13.20;;
20456;SDS011;10387;51.102;6.848;2022-07-30T02:34:21;16.50;;;13.00;;
20456;SDS011;10387;51.102;6.848;2022-07-30T02:36:48;14.30;;;12.83;;
20456;SDS011;10387;51.102;6.848;2022-07-30T02:39:15;14.70;;;13.03;;
20456;SDS011;10387;51.102;6.848;2022-07-30T02:41:42;14.87;;;13.37;;
20456;SDS011;10387;51.102;6.848;2022-07-30T02:44:10;14.93;;;13.27;;
20456;SDS011;10387;51.102;6.848;2022-07-30T02:46:37;13.57;;;12.20;;
20456;SDS011;10387;51.102;6.848;2022-07-30T02:49:23;13.17;;;11.87;;
20456;SDS011;10387;51.102;6.848;2022-07-30T02:51:51;14.83;;;13.03;;
20456;SDS011;10387;51.102;6.848;2022-07-30T02:54:18;14.40;;;12.97;;
20456;SDS011;10387;51.102;6.848;2022-07-30T02:56:45;14.63;;;13.23;;
20456;SDS011;10387;51.102;6.848;2022-07-30T02:59:12;14.43;;;12.80;;
20456;SDS011;10387;51.102;6.848;2022-07-30T03:01:39;14.63;;;13.10;;
20456;SDS011;10387;51.102;6.848;2022-07-30T03:04:06;16.07;;;13.27;;
20456;SDS011;10387;51.102;6.848;2022-07-30T03:06:32;15.57;;;12.73;;
20456;SDS011;10387;51.102;6.848;2022-07-30T03:09:00;14.17;;;12.80;;
20456;SDS011;10387;51.102;6.848;2022-07-30T03:11:27;14.57;;;13.07;;
20456;SDS011;10387;51.102;6.848;2022-07-30T03:13:54;14.00;;;12.57;;
20456;SDS011;10387;51.102;6.848;2022-07-30T03:16:21;15.27;;;12.87;;
20456;SDS011;10387;51.102;6.848;2022-07-30T03:18:49;14.17;;;12.67;;
20456;SDS011;10387;51.102;6.848;2022-07-30T03:21:18;14.70;;;13.30;;
20456;SDS011;10387;51.102;6.848;2022-07-30T03:23:45;14.50;;;12.87;;
20456;SDS011;10387;51.102;6.848;2022-07-30T03:26:13;14.83;;;13.43;;
20456;SDS011;10387;51.102;6.848;2022-07-30T03:28:40;14.87;;;13.40;;
20456;SDS011;10387;51.102;6.848;2022-07-30T03:31:08;15.00;;;13.40;;
20456;SDS011;10387;51.102;6.848;2022-07-30T03:33:36;15.00;;;13.50;;
20456;SDS011;10387;51.102;6.848;2022-07-30T03:36:02;14.63;;;13.13;;
20456;SDS011;10387;51.102;6.848;2022-07-30T03:38:29;15.40;;;13.60;;
20456;SDS011;10387;51.102;6.848;2022-07-30T03:40:56;14.37;;;12.87;;
20456;SDS011;10387;51.102;6.848;2022-07-30T03:43:23;15.87;;;14.17;;
20456;SDS011;10387;51.102;6.848;2022-07-30T03:45:50;14.57;;;13.07;;
20456;SDS011;10387;51.102;6.848;2022-07-30T03:48:20;15.63;;;14.00;;
20456;SDS011;10387;51.102;6.848;2022-07-30T03:50:47;15.07;;;13.57;;
20456;SDS011;10387;51.102;6.848;2022-07-30T03:53:14;15.83;;;14.30;;
20456;SDS011;10387;51.102;6.848;2022-07-30T03:56:11;16.13;;;14.40;;
20456;SDS011;10387;51.102;6.848;2022-07-30T03:58:52;15.23;;;13.23;;
20456;SDS011;10387;51.102;6.848;2022-07-30T04:01:23;16.03;;;13.77;;
20456;SDS011;10387;51.102;6.848;2022-07-30T04:03:49;15.93;;;13.80;;
20456;SDS011;10387;51.102;6.848;2022-07-30T04:06:15;15.73;;;14.10;;
20456;SDS011;10387;51.102;6.848;2022-07-30T04:08:42;15.60;;;13.90;;
20456;SDS011;10387;51.102;6.848;2022-07-30T04:11:09;15.67;;;14.07;;
20456;SDS011;10387;51.102;6.848;2022-07-30T04:13:46;15.27;;;13.73;;
20456;SDS011;10387;51.102;6.848;2022-07-30T04:16:17;16.13;;;12.57;;
20456;SDS011;10387;51.102;6.848;2022-07-30T04:18:49;15.97;;;14.00;;
20456;SDS011;10387;51.102;6.848;2022-07-30T04:21:16;17.63;;;13.43;;
20456;SDS011;10387;51.102;6.848;2022-07-30T04:23:44;15.47;;;13.67;;
20456;SDS011;10387;51.102;6.848;2022-07-30T04:26:12;16.03;;;14.30;;
20456;SDS011;10387;51.102;6.848;2022-07-30T04:28:39;16.73;;;14.97;;
20456;SDS011;10387;51.102;6.848;2022-07-30T04:31:06;16.50;;;13.93;;
20456;SDS011;10387;51.102;6.848;2022-07-30T04:33:32;16.23;;;14.63;;
20456;SDS011;10387;51.102;6.848;2022-07-30T04:36:09;16.90;;;14.60;;
20456;SDS011;10387;51.102;6.848;2022-07-30T04:38:36;16.77;;;15.03;;
20456;SDS011;10387;51.102;6.848;2022-07-30T04:41:03;16.07;;;14.47;;
20456;SDS011;10387;51.102;6.848;2022-07-30T04:43:52;17.33;;;15.20;;
20456;SDS011;10387;51.102;6.848;2022-07-30T04:46:19;20.97;;;16.17;;
20456;SDS011;10387;51.102;6.848;2022-07-30T04:48:47;18.70;;;16.17;;
20456;SDS011;10387;51.102;6.848;2022-07-30T04:51:19;17.60;;;15.73;;
20456;SDS011;10387;51.102;6.848;2022-07-30T04:53:47;18.73;;;16.50;;
20456;SDS011;10387;51.102;6.848;2022-07-30T04:56:17;19.30;;;16.23;;
20456;SDS011;10387;51.102;6.848;2022-07-30T04:58:45;19.30;;;16.63;;
20456;SDS011;10387;51.102;6.848;2022-07-30T05:01:15;19.50;;;17.33;;
20456;SDS011;10387;51.102;6.848;2022-07-30T05:03:44;21.07;;;17.57;;
20456;SDS011;10387;51.102;6.848;2022-07-30T05:06:12;20.90;;;18.53;;
20456;SDS011;10387;51.102;6.848;2022-07-30T05:08:39;19.70;;;17.63;;
20456;SDS011;10387;51.102;6.848;2022-07-30T05:11:11;20.63;;;18.47;;
20456;SDS011;10387;51.102;6.848;2022-07-30T05:13:44;21.67;;;18.13;;
20456;SDS011;10387;51.102;6.848;2022-07-30T05:16:15;20.67;;;18.37;;
20456;SDS011;10387;51.102;6.848;2022-07-30T05:18:41;21.23;;;18.87;;
20456;SDS011;10387;51.102;6.848;2022-07-30T05:21:08;21.43;;;18.87;;
20456;SDS011;10387;51.102;6.848;2022-07-30T05:23:40;21.97;;;18.37;;
20456;SDS011;10387;51.102;6.848;2022-07-30T05:26:17;26.80;;;20.37;;
20456;SDS011;10387;51.102;6.848;2022-07-30T05:28:45;24.00;;;20.67;;
20456;SDS011;10387;51.102;6.848;2022-07-30T05:31:12;21.87;;;19.23;;
20456;SDS011;10387;51.102;6.848;2022-07-30T05:33:40;29.73;;;22.10;;
20456;SDS011;10387;51.102;6.848;2022-07-30T05:36:08;27.20;;;22.67;;
20456;SDS011;10387;51.102;6.848;2022-07-30T05:38:37;23.33;;;20.57;;
20456;SDS011;10387;51.102;6.848;2022-07-30T05:41:41;32.83;;;24.83;;
20456;SDS011;10387;51.102;6.848;2022-07-30T05:44:13;31.40;;;24.73;;
20456;SDS011;10387;51.102;6.848;2022-07-30T05:46:39;32.00;;;24.90;;
20456;SDS011;10387;51.102;6.848;2022-07-30T05:49:06;32.80;;;25.70;;
20456;SDS011;10387;51.102;6.848;2022-07-30T05:51:33;33.97;;;26.30;;
20456;SDS011;10387;51.102;6.848;2022-07-30T05:53:59;31.87;;;25.27;;
20456;SDS011;10387;51.102;6.848;2022-07-30T05:56:48;30.27;;;24.37;;
20456;SDS011;10387;51.102;6.848;2022-07-30T05:59:21;27.93;;;23.97;;
20456;SDS011;10387;51.102;6.848;2022-07-30T06:02:06;33.20;;;24.83;;
20456;SDS011;10387;51.102;6.848;2022-07-30T06:04:50;30.53;;;24.73;;
20456;SDS011;10387;51.102;6.848;2022-07-30T06:07:16;33.13;;;25.23;;
20456;SDS011;10387;51.102;6.848;2022-07-30T06:09:42;36.17;;;25.87;;
20456;SDS011;10387;51.102;6.848;2022-07-30T06:12:09;36.57;;;25.93;;
20456;SDS011;10387;51.102;6.848;2022-07-30T06:14:35;33.17;;;26.73;;
20456;SDS011;10387;51.102;6.848;2022-07-30T06:17:03;35.07;;;28.23;;
20456;SDS011;10387;51.102;6.848;2022-07-30T06:19:50;33.80;;;26.20;;
20456;SDS011;10387;51.102;6.848;2022-07-30T06:22:19;35.37;;;25.73;;
20456;SDS011;10387;51.102;6.848;2022-07-30T06:24:47;32.67;;;26.40;;
20456;SDS011;10387;51.102;6.848;2022-07-30T06:27:17;35.10;;;27.20;;
20456;SDS011;10387;51.102;6.848;2022-07-30T06:29:43;33.97;;;27.17;;
20456;SDS011;10387;51.102;6.848;2022-07-30T06:32:10;33.77;;;27.07;;
20456;SDS011;10387;51.102;6.848;2022-07-30T06:34:36;34.30;;;25.90;;
20456;SDS011;10387;51.102;6.848;2022-07-30T06:37:02;35.37;;;25.30;;
20456;SDS011;10387;51.102;6.848;2022-07-30T06:39:28;33.00;;;24.77;;
20456;SDS011;10387;51.102;6.848;2022-07-30T06:41:57;30.90;;;24.87;;
20456;SDS011;10387;51.102;6.848;2022-07-30T06:44:40;30.87;;;23.93;;
20456;SDS011;10387;51.102;6.848;2022-07-30T06:47:06;27.00;;;22.33;;
20456;SDS011;10387;51.102;6.848;2022-07-30T06:49:33;26.70;;;22.33;;
20456;SDS011;10387;51.102;6.848;2022-07-30T06:52:00;28.93;;;22.23;;
20456;SDS011;10387;51.102;6.848;2022-07-30T06:54:28;26.87;;;21.70;;
20456;SDS011;10387;51.102;6.848;2022-07-30T06:57:13;26.30;;;22.83;;
20456;SDS011;10387;51.102;6.848;2022-07-30T06:59:41;28.37;;;21.83;;
20456;SDS011;10387;51.102;6.848;2022-07-30T07:02:16;27.00;;;21.30;;
20456;SDS011;10387;51.102;6.848;2022-07-30T07:05:05;26.23;;;21.03;;
20456;SDS011;10387;51.102;6.848;2022-07-30T07:07:32;22.97;;;19.40;;
20456;SDS011;10387;51.102;6.848;2022-07-30T07:09:59;25.30;;;21.43;;
20456;SDS011;10387;51.102;6.848;2022-07-30T07:12:48;24.90;;;20.13;;
20456;SDS011;10387;51.102;6.848;2022-07-30T07:15:18;21.63;;;18.67;;
20456;SDS011;10387;51.102;6.848;2022-07-30T07:17:44;20.63;;;18.40;;
20456;SDS011;10387;51.102;6.848;2022-07-30T07:20:25;23.20;;;18.70;;
20456;SDS011;10387;51.102;6.848;2022-07-30T07:22:58;25.23;;;19.57;;
20456;SDS011;10387;51.102;6.848;2022-07-30T07:25:25;22.97;;;18.87;;
20456;SDS011;10387;51.102;6.848;2022-07-30T07:27:51;23.00;;;19.13;;
20456;SDS011;10387;51.102;6.848;2022-07-30T07:30:17;18.80;;;16.83;;
20456;SDS011;10387;51.102;6.848;2022-07-30T07:32:45;20.93;;;17.17;;
20456;SDS011;10387;51.102;6.848;2022-07-30T07:35:12;21.90;;;17.73;;
20456;SDS011;10387;51.102;6.848;2022-07-30T07:37:41;20.63;;;17.10;;
20456;SDS011;10387;51.102;6.848;2022-07-30T07:40:13;21.07;;;17.53;;
20456;SDS011;10387;51.102;6.848;2022-07-30T07:42:41;18.33;;;16.37;;
20456;SDS011;10387;51.102;6.848;2022-07-30T07:45:07;19.67;;;16.20;;
20456;SDS011;10387;51.102;6.848;2022-07-30T07:47:45;17.90;;;15.17;;
20456;SDS011;10387;51.102;6.848;2022-07-30T07:50:17;18.17;;;14.70;;
20456;SDS011;10387;51.102;6.848;2022-07-30T07:52:44;16.30;;;14.00;;
20456;SDS011;10387;51.102;6.848;2022-07-30T07:55:11;19.60;;;14.23;;
20456;SDS011;10387;51.102;6.848;2022-07-30T07:57:41;14.80;;;12.93;;
20456;SDS011;10387;51.102;6.848;2022-07-30T08:00:10;15.93;;;14.23;;
20456;SDS011;10387;51.102;6.848;2022-07-30T08:02:44;16.17;;;14.27;;
20456;SDS011;10387;51.102;6.848;2022-07-30T08:05:12;19.00;;;14.63;;
20456;SDS011;10387;51.102;6.848;2022-07-30T08:07:57;17.50;;;12.93;;
20456;SDS011;10387;51.102;6.848;2022-07-30T08:10:55;17.23;;;13.40;;
20456;SDS011;10387;51.102;6.848;2022-07-30T08:13:40;20.60;;;14.47;;
20456;SDS011;10387;51.102;6.848;2022-07-30T08:16:25;19.50;;;14.33;;
20456;SDS011;10387;51.102;6.848;2022-07-30T08:19:11;14.97;;;13.27;;
20456;SDS011;10387;51.102;6.848;2022-07-30T08:21:40;19.27;;;13.43;;
20456;SDS011;10387;51.102;6.848;2022-07-30T08:24:07;17.03;;;13.90;;
20456;SDS011;10387;51.102;6.848;2022-07-30T08:26:33;17.03;;;13.07;;
20456;SDS011;10387;51.102;6.848;2022-07-30T08:29:00;16.77;;;13.00;;
20456;SDS011;10387;51.102;6.848;2022-07-30T08:31:26;16.70;;;13.53;;
20456;SDS011;10387;51.102;6.848;2022-07-30T08:33:52;16.53;;;12.83;;
20456;SDS011;10387;51.102;6.848;2022-07-30T08:36:18;15.50;;;12.80;;
20456;SDS011;10387;51.102;6.848;2022-07-30T08:38:44;15.83;;;13.07;;
20456;SDS011;10387;51.102;6.848;2022-07-30T08:41:10;14.57;;;12.33;;
20456;SDS011;10387;51.102;6.848;2022-07-30T08:43:38;16.97;;;12.33;;
20456;SDS011;10387;51.102;6.848;2022-07-30T08:46:06;16.50;;;13.13;;
20456;SDS011;10387;51.102;6.848;2022-07-30T08:48:56;15.57;;;12.60;;
20456;SDS011;10387;51.102;6.848;2022-07-30T08:51:23;16.33;;;13.03;;
20456;SDS011;10387;51.102;6.848;2022-07-30T08:54:08;16.20;;;13.77;;
20456;SDS011;10387;51.102;6.848;2022-07-30T08:56:35;16.27;;;12.73;;
20456;SDS011;10387;51.102;6.848;2022-07-30T08:59:01;15.33;;;12.60;;
20456;SDS011;10387;51.102;6.848;2022-07-30T09:01:28;15.20;;;12.30;;
20456;SDS011;10387;51.102;6.848;2022-07-30T09:03:55;15.23;;;11.50;;
20456;SDS011;10387;51.102;6.848;2022-07-30T09:06:24;13.87;;;10.27;;
20456;SDS011;10387;51.102;6.848;2022-07-30T09:08:50;11.40;;;10.23;;
20456;SDS011;10387;51.102;6.848;2022-07-30T09:11:16;15.93;;;12.00;;
20456;SDS011;10387;51.102;6.848;2022-07-30T09:13:43;13.73;;;11.83;;
20456;SDS011;10387;51.102;6.848;2022-07-30T09:16:21;13.77;;;11.93;;
20456;SDS011;10387;51.102;6.848;2022-07-30T09:18:47;13.43;;;10.93;;
20456;SDS011;10387;51.102;6.848;2022-07-30T09:23:53;10.77;;;9.33;;
20456;SDS011;10387;51.102;6.848;2022-07-30T09:26:57;12.83;;;10.63;;
20456;SDS011;10387;51.102;6.848;2022-07-30T09:29:44;12.60;;;10.10;;
20456;SDS011;10387;51.102;6.848;2022-07-30T09:32:45;11.60;;;9.90;;
20456;SDS011;10387;51.102;6.848;2022-07-30T09:35:31;11.37;;;8.50;;
20456;SDS011;10387;51.102;6.848;2022-07-30T09:38:09;11.53;;;8.10;;
20456;SDS011;10387;51.102;6.848;2022-07-30T09:40:59;10.50;;;8.40;;
20456;SDS011;10387;51.102;6.848;2022-07-30T09:43:44;12.93;;;9.33;;
20456;SDS011;10387;51.102;6.848;2022-07-30T09:46:19;12.30;;;11.00;;
20456;SDS011;10387;51.102;6.848;2022-07-30T09:48:45;11.97;;;9.83;;
20456;SDS011;10387;51.102;6.848;2022-07-30T09:51:11;8.60;;;7.67;;
20456;SDS011;10387;51.102;6.848;2022-07-30T09:53:54;11.53;;;8.33;;
20456;SDS011;10387;51.102;6.848;2022-07-30T09:56:25;8.50;;;7.33;;
20456;SDS011;10387;51.102;6.848;2022-07-30T09:58:52;8.60;;;7.67;;
20456;SDS011;10387;51.102;6.848;2022-07-30T10:01:18;11.43;;;8.63;;
20456;SDS011;10387;51.102;6.848;2022-07-30T10:04:13;9.30;;;8.33;;
20456;SDS011;10387;51.102;6.848;2022-07-30T10:06:55;11.07;;;8.57;;
20456;SDS011;10387;51.102;6.848;2022-07-30T10:09:29;10.43;;;7.87;;
20456;SDS011;10387;51.102;6.848;2022-07-30T10:11:56;10.90;;;8.40;;
20456;SDS011;10387;51.102;6.848;2022-07-30T10:14:23;7.97;;;7.27;;
20456;SDS011;10387;51.102;6.848;2022-07-30T10:16:50;9.37;;;7.57;;
20456;SDS011;10387;51.102;6.848;2022-07-30T10:19:16;9.57;;;7.37;;
20456;SDS011;10387;51.102;6.848;2022-07-30T10:22:01;7.93;;;5.80;;
20456;SDS011;10387;51.102;6.848;2022-07-30T10:24:46;7.67;;;6.47;;
20456;SDS011;10387;51.102;6.848;2022-07-30T10:27:31;10.37;;;7.27;;
20456;SDS011;10387;51.102;6.848;2022-07-30T10:30:04;8.13;;;6.23;;
20456;SDS011;10387;51.102;6.848;2022-07-30T10:32:30;8.77;;;7.07;;
20456;SDS011;10387;51.102;6.848;2022-07-30T10:34:57;8.07;;;6.77;;
20456;SDS011;10387;51.102;6.848;2022-07-30T10:37:23;9.53;;;7.67;;
20456;SDS011;10387;51.102;6.848;2022-07-30T10:47:27;6.20;;;5.60;;
20456;SDS011;10387;51.102;6.848;2022-07-30T10:50:10;7.07;;;4.67;;
20456;SDS011;10387;51.102;6.848;2022-07-30T10:55:25;7.27;;;5.27;;
20456;SDS011;10387;51.102;6.848;2022-07-30T10:58:11;7.17;;;4.80;;
20456;SDS011;10387;51.102;6.848;2022-07-30T11:03:10;7.67;;;5.70;;
20456;SDS011;10387;51.102;6.848;2022-07-30T11:05:36;8.80;;;6.17;;
20456;SDS011;10387;51.102;6.848;2022-07-30T11:10:47;8.53;;;7.40;;
20456;SDS011;10387;51.102;6.848;2022-07-30T11:13:13;8.23;;;5.90;;
20456;SDS011;10387;51.102;6.848;2022-07-30T11:15:50;8.10;;;5.23;;
20456;SDS011;10387;51.102;6.848;2022-07-30T11:18:18;5.30;;;4.60;;
20456;SDS011;10387;51.102;6.848;2022-07-30T11:21:12;6.57;;;5.87;;
20456;SDS011;10387;51.102;6.848;2022-07-30T11:23:34;7.37;;;5.20;;
20456;SDS011;10387;51.102;6.848;2022-07-30T11:26:01;6.97;;;5.03;;
20456;SDS011;10387;51.102;6.848;2022-07-30T11:31:03;6.67;;;4.60;;
20456;SDS011;10387;51.102;6.848;2022-07-30T11:33:29;5.77;;;4.80;;
20456;SDS011;10387;51.102;6.848;2022-07-30T11:36:09;4.90;;;4.43;;
20456;SDS011;10387;51.102;6.848;2022-07-30T11:38:57;5.63;;;4.63;;
20456;SDS011;10387;51.102;6.848;2022-07-30T11:41:24;4.65;;;4.03;;
20456;SDS011;10387;51.102;6.848;2022-07-30T11:44:24;4.95;;;4.38;;
20456;SDS011;10387;51.102;6.848;2022-07-30T11:46:46;4.55;;;4.13;;
20456;SDS011;10387;51.102;6.848;2022-07-30T11:49:14;4.33;;;3.93;;
20456;SDS011;10387;51.102;6.848;2022-07-30T11:51:41;4.17;;;3.77;;
20456;SDS011;10387;51.102;6.848;2022-07-30T11:54:08;4.22;;;3.80;;
20456;SDS011;10387;51.102;6.848;2022-07-30T11:56:35;4.10;;;3.80;;
20456;SDS011;10387;51.102;6.848;2022-07-30T11:59:02;6.13;;;3.90;;
20456;SDS011;10387;51.102;6.848;2022-07-30T12:01:29;5.85;;;4.05;;
20456;SDS011;10387;51.102;6.848;2022-07-30T12:03:55;6.25;;;3.83;;
20456;SDS011;10387;51.102;6.848;2022-07-30T12:06:22;6.20;;;4.30;;
20456;SDS011;10387;51.102;6.848;2022-07-30T12:08:49;5.95;;;3.95;;
20456;SDS011;10387;51.102;6.848;2022-07-30T12:11:15;4.30;;;3.83;;
20456;SDS011;10387;51.102;6.848;2022-07-30T12:13:42;4.15;;;3.72;;
20456;SDS011;10387;51.102;6.848;2022-07-30T12:16:09;4.63;;;4.18;;
20456;SDS011;10387;51.102;6.848;2022-07-30T12:18:35;4.30;;;3.90;;
20456;SDS011;10387;51.102;6.848;2022-07-30T12:21:02;3.60;;;3.30;;
20456;SDS011;10387;51.102;6.848;2022-07-30T12:23:29;4.20;;;3.80;;
20456;SDS011;10387;51.102;6.848;2022-07-30T12:25:55;3.53;;;3.20;;
20456;SDS011;10387;51.102;6.848;2022-07-30T12:28:23;3.67;;;3.38;;
20456;SDS011;10387;51.102;6.848;2022-07-30T12:30:50;3.40;;;3.10;;
20456;SDS011;10387;51.102;6.848;2022-07-30T12:33:17;3.53;;;3.30;;
20456;SDS011;10387;51.102;6.848;2022-07-30T12:35:51;4.15;;;3.85;;
20456;SDS011;10387;51.102;6.848;2022-07-30T12:38:18;3.92;;;3.50;;
20456;SDS011;10387;51.102;6.848;2022-07-30T12:40:56;3.70;;;3.40;;
20456;SDS011;10387;51.102;6.848;2022-07-30T12:43:43;4.32;;;3.92;;
20456;SDS011;10387;51.102;6.848;2022-07-30T12:46:35;4.93;;;4.35;;
20456;SDS011;10387;51.102;6.848;2022-07-30T12:49:03;5.22;;;3.63;;
20456;SDS011;10387;51.102;6.848;2022-07-30T12:51:30;3.50;;;3.20;;
20456;SDS011;10387;51.102;6.848;2022-07-30T12:54:00;3.17;;;2.88;;
20456;SDS011;10387;51.102;6.848;2022-07-30T12:56:27;3.67;;;3.00;;
20456;SDS011;10387;51.102;6.848;2022-07-30T12:58:54;3.33;;;2.92;;
20456;SDS011;10387;51.102;6.848;2022-07-30T13:04:06;3.60;;;3.33;;
20456;SDS011;10387;51.102;6.848;2022-07-30T13:06:32;3.38;;;2.60;;
20456;SDS011;10387;51.102;6.848;2022-07-30T13:08:58;4.60;;;2.80;;
20456;SDS011;10387;51.102;6.848;2022-07-30T13:11:41;3.30;;;2.30;;
20456;SDS011;10387;51.102;6.848;2022-07-30T13:14:07;2.85;;;2.60;;
20456;SDS011;10387;51.102;6.848;2022-07-30T13:16:35;3.05;;;2.75;;
20456;SDS011;10387;51.102;6.848;2022-07-30T13:19:02;2.80;;;2.50;;
20456;SDS011;10387;51.102;6.848;2022-07-30T13:21:28;2.65;;;2.42;;
20456;SDS011;10387;51.102;6.848;2022-07-30T13:23:54;3.20;;;2.20;;
20456;SDS011;10387;51.102;6.848;2022-07-30T13:26:21;3.92;;;2.55;;
20456;SDS011;10387;51.102;6.848;2022-07-30T13:28:47;2.70;;;2.50;;
20456;SDS011;10387;51.102;6.848;2022-07-30T13:31:13;3.88;;;2.17;;
20456;SDS011;10387;51.102;6.848;2022-07-30T13:33:39;2.85;;;2.33;;
20456;SDS011;10387;51.102;6.848;2022-07-30T13:36:06;2.90;;;2.70;;
20456;SDS011;10387;51.102;6.848;2022-07-30T13:38:33;5.15;;;2.63;;
20456;SDS011;10387;51.102;6.848;2022-07-30T13:40:59;2.42;;;2.30;;
20456;SDS011;10387;51.102;6.848;2022-07-30T13:43:25;2.70;;;2.50;;
20456;SDS011;10387;51.102;6.848;2022-07-30T13:45:51;2.50;;;2.03;;
20456;SDS011;10387;51.102;6.848;2022-07-30T13:48:18;2.97;;;2.28;;
20456;SDS011;10387;51.102;6.848;2022-07-30T13:50:44;4.07;;;2.58;;
20456;SDS011;10387;51.102;6.848;2022-07-30T13:53:10;3.72;;;2.60;;
20456;SDS011;10387;51.102;6.848;2022-07-30T13:55:37;4.32;;;2.40;;
20456;SDS011;10387;51.102;6.848;2022-07-30T13:58:03;2.50;;;2.30;;
20456;SDS011;10387;51.102;6.848;2022-07-30T14:00:31;2.10;;;1.90;;
20456;SDS011;10387;51.102;6.848;2022-07-30T14:03:03;2.22;;;2.03;;
20456;SDS011;10387;51.102;6.848;2022-07-30T14:05:29;3.08;;;2.40;;
20456;SDS011;10387;51.102;6.848;2022-07-30T14:07:57;4.05;;;2.40;;
20456;SDS011;10387;51.102;6.848;2022-07-30T14:10:23;2.42;;;2.10;;
20456;SDS011;10387;51.102;6.848;2022-07-30T14:12:50;3.45;;;2.45;;
20456;SDS011;10387;51.102;6.848;2022-07-30T14:15:19;3.67;;;2.45;;
20456;SDS011;10387;51.102;6.848;2022-07-30T14:17:46;2.25;;;2.05;;
20456;SDS011;10387;51.102;6.848;2022-07-30T14:20:13;3.30;;;2.33;;
20456;SDS011;10387;51.102;6.848;2022-07-30T14:22:40;2.63;;;2.30;;
20456;SDS011;10387;51.102;6.848;2022-07-30T14:25:07;3.50;;;2.40;;
20456;SDS011;10387;51.102;6.848;2022-07-30T14:27:33;3.38;;;2.03;;
20456;SDS011;10387;51.102;6.848;2022-07-30T14:30:03;2.05;;;1.95;;
20456;SDS011;10387;51.102;6.848;2022-07-30T14:32:29;2.42;;;1.80;;
20456;SDS011;10387;51.102;6.848;2022-07-30T14:34:56;2.78;;;2.05;;
20456;SDS011;10387;51.102;6.848;2022-07-30T14:37:22;3.90;;;2.15;;
20456;SDS011;10387;51.102;6.848;2022-07-30T14:39:50;2.85;;;1.55;;
20456;SDS011;10387;51.102;6.848;2022-07-30T14:42:16;2.85;;;1.75;;
20456;SDS011;10387;51.102;6.848;2022-07-30T14:44:46;3.20;;;2.20;;
20456;SDS011;10387;51.102;6.848;2022-07-30T14:47:14;2.72;;;1.98;;
20456;SDS011;10387;51.102;6.848;2022-07-30T14:49:41;1.98;;;1.80;;
20456;SDS011;10387;51.102;6.848;2022-07-30T14:52:07;1.90;;;1.73;;
20456;SDS011;10387;51.102;6.848;2022-07-30T14:54:34;3.55;;;1.80;;
20456;SDS011;10387;51.102;6.848;2022-07-30T14:57:00;2.00;;;1.80;;
20456;SDS011;10387;51.102;6.848;2022-07-30T14:59:27;3.45;;;1.92;;
20456;SDS011;10387;51.102;6.848;2022-07-30T15:01:54;4.15;;;1.80;;
20456;SDS011;10387;51.102;6.848;2022-07-30T15:04:21;1.98;;;1.83;;
20456;SDS011;10387;51.102;6.848;2022-07-30T15:06:47;2.92;;;2.03;;
20456;SDS011;10387;51.102;6.848;2022-07-30T15:09:17;1.60;;;1.48;;
20456;SDS011;10387;51.102;6.848;2022-07-30T15:11:44;2.28;;;1.70;;